Monteria, Monteria Los Garzones Airport (SKMR)

NameMonteria Los Garzones Airport
CityMonteria
CountryColombia
ICAOSKMR
IATAMTR
Altitude11 m
CoordinatesGoogle Map
Live Air TrafficLiveATC.net
METARSKMR 251700Z 00000KT 9999 BKN020 34/24 A2985
2020-04-25 17:00:00 Wind: North (0°) 0 m/s - Visibility: > 10000 m - Temperature: 34 °C - Dew point: 24 °C - Humidity: 55.9% - Pressure: 1010.84 hPa

Sorry, no flights used the airport in this database.